Orlando, Florida
Traffic Map
Current Weather Conditions
Orlando, Florida
Broken Clouds
Broken Clouds
21°
Feels Like: 21°
Wind Chill: 21° Ceiling: 11000
Heat Index: 21° Visibility: 10mi
Dew Point: 18° Wind: 5mph
Humidity: 84% Direction: 160° (SSE)
Pressure: 29.96in Gusts: 0mph
Raw Report DataKORL 182253Z 16004KT 10SM FEW080 SCT090 BKN110 21/18 A2996 RMK AO2 RAE06 SLP148 P0000 T02110183
Traffic Incident Summary
Active as of:
Severity:
Category:
InformationThere was an issue retrieving the traffic information for this location. Please try a different location or try again shortly.
Advertisements
At Last! Intellicast now available for iPhone and Android